sensor_id;sensor_type;location;lat;lon;timestamp;pressure;altitude;pressure_sealevel;temperature;humidity
71573;BME280;59408;51.032;9.410;2023-12-22T00:00:04;97181.84;;;3.42;87.67
71573;BME280;59408;51.032;9.410;2023-12-22T00:02:32;97194.53;;;3.42;88.31
71573;BME280;59408;51.032;9.410;2023-12-22T00:04:59;97182.84;;;3.38;90.04
71573;BME280;59408;51.032;9.410;2023-12-22T00:07:25;97179.38;;;3.37;91.06
71573;BME280;59408;51.032;9.410;2023-12-22T00:09:54;97196.44;;;3.41;91.68
71573;BME280;59408;51.032;9.410;2023-12-22T00:12:21;97190.16;;;3.37;92.79
71573;BME280;59408;51.032;9.410;2023-12-22T00:14:47;97184.22;;;3.32;92.28
71573;BME280;59408;51.032;9.410;2023-12-22T00:17:13;97175.00;;;3.33;92.50
71573;BME280;59408;51.032;9.410;2023-12-22T00:19:41;97166.47;;;3.31;92.68
71573;BME280;59408;51.032;9.410;2023-12-22T00:22:08;97157.84;;;3.25;93.74
71573;BME280;59408;51.032;9.410;2023-12-22T00:24:34;97147.72;;;3.22;94.15
71573;BME280;59408;51.032;9.410;2023-12-22T00:27:01;97148.63;;;3.26;94.07
71573;BME280;59408;51.032;9.410;2023-12-22T00:29:28;97149.28;;;3.23;95.00
71573;BME280;59408;51.032;9.410;2023-12-22T00:31:54;97167.50;;;3.26;94.80
71573;BME280;59408;51.032;9.410;2023-12-22T00:34:21;97173.44;;;3.32;94.51
71573;BME280;59408;51.032;9.410;2023-12-22T00:36:49;97179.94;;;3.31;95.09
71573;BME280;59408;51.032;9.410;2023-12-22T00:39:16;97186.25;;;3.35;94.31
71573;BME280;59408;51.032;9.410;2023-12-22T00:41:42;97186.25;;;3.35;94.22
71573;BME280;59408;51.032;9.410;2023-12-22T00:44:09;97181.06;;;3.42;92.89
71573;BME280;59408;51.032;9.410;2023-12-22T00:46:36;97167.34;;;3.47;91.17
71573;BME280;59408;51.032;9.410;2023-12-22T00:49:02;97172.63;;;3.56;90.10
71573;BME280;59408;51.032;9.410;2023-12-22T00:51:29;97184.56;;;3.55;90.46
71573;BME280;59408;51.032;9.410;2023-12-22T00:53:57;97176.22;;;3.60;88.43
71573;BME280;59408;51.032;9.410;2023-12-22T00:56:23;97185.22;;;3.64;87.40
71573;BME280;59408;51.032;9.410;2023-12-22T00:58:50;97181.41;;;3.53;88.58
71573;BME280;59408;51.032;9.410;2023-12-22T01:01:27;97179.03;;;3.51;87.41
71573;BME280;59408;51.032;9.410;2023-12-22T01:03:54;97176.91;;;3.44;87.05
71573;BME280;59408;51.032;9.410;2023-12-22T01:06:20;97183.09;;;3.45;86.48
71573;BME280;59408;51.032;9.410;2023-12-22T01:08:51;97193.19;;;3.48;85.57
71573;BME280;59408;51.032;9.410;2023-12-22T01:11:19;97203.28;;;3.51;84.18
71573;BME280;59408;51.032;9.410;2023-12-22T01:13:46;97200.47;;;3.60;82.94
71573;BME280;59408;51.032;9.410;2023-12-22T01:16:12;97209.56;;;3.67;82.13
71573;BME280;59408;51.032;9.410;2023-12-22T01:18:39;97224.28;;;3.70;81.52
71573;BME280;59408;51.032;9.410;2023-12-22T01:21:06;97208.78;;;3.67;82.02
71573;BME280;59408;51.032;9.410;2023-12-22T01:23:32;97229.22;;;3.56;80.83
71573;BME280;59408;51.032;9.410;2023-12-22T01:25:59;97211.81;;;3.65;78.74
71573;BME280;59408;51.032;9.410;2023-12-22T01:28:27;97224.50;;;3.65;79.35
71573;BME280;59408;51.032;9.410;2023-12-22T01:30:53;97221.84;;;3.53;80.52
71573;BME280;59408;51.032;9.410;2023-12-22T01:33:20;97227.00;;;3.45;79.96
71573;BME280;59408;51.032;9.410;2023-12-22T01:35:47;97223.53;;;3.45;78.76
71573;BME280;59408;51.032;9.410;2023-12-22T01:38:13;97209.47;;;3.51;75.29
71573;BME280;59408;51.032;9.410;2023-12-22T01:40:40;97213.63;;;3.49;75.26
71573;BME280;59408;51.032;9.410;2023-12-22T01:43:06;97227.22;;;3.53;75.52
71573;BME280;59408;51.032;9.410;2023-12-22T01:45:34;97223.06;;;3.43;76.58
71573;BME280;59408;51.032;9.410;2023-12-22T01:48:01;97217.44;;;3.48;75.76
71573;BME280;59408;51.032;9.410;2023-12-22T01:50:29;97244.97;;;3.54;75.27
71573;BME280;59408;51.032;9.410;2023-12-22T01:52:56;97248.09;;;3.56;74.91
71573;BME280;59408;51.032;9.410;2023-12-22T01:55:23;97244.06;;;3.62;74.48
71573;BME280;59408;51.032;9.410;2023-12-22T01:57:50;97245.41;;;3.68;74.61
71573;BME280;59408;51.032;9.410;2023-12-22T02:00:18;97244.94;;;3.66;74.34
71573;BME280;59408;51.032;9.410;2023-12-22T02:02:47;97238.34;;;3.63;74.47
71573;BME280;59408;51.032;9.410;2023-12-22T02:05:13;97233.28;;;3.62;75.34
71573;BME280;59408;51.032;9.410;2023-12-22T02:07:41;97239.91;;;3.52;76.02
71573;BME280;59408;51.032;9.410;2023-12-22T02:10:08;97229.34;;;3.47;76.40
71573;BME280;59408;51.032;9.410;2023-12-22T02:12:35;97223.16;;;3.46;75.92
71573;BME280;59408;51.032;9.410;2023-12-22T02:15:02;97231.47;;;3.41;76.28
71573;BME280;59408;51.032;9.410;2023-12-22T02:17:33;97232.94;;;3.39;76.40
71573;BME280;59408;51.032;9.410;2023-12-22T02:20:05;97237.19;;;3.40;76.25
71573;BME280;59408;51.032;9.410;2023-12-22T02:22:34;97237.78;;;3.45;76.18
71573;BME280;59408;51.032;9.410;2023-12-22T02:25:01;97231.81;;;3.40;76.93
71573;BME280;59408;51.032;9.410;2023-12-22T02:27:30;97236.75;;;3.38;76.85
71573;BME280;59408;51.032;9.410;2023-12-22T02:30:03;97242.25;;;3.41;75.79
71573;BME280;59408;51.032;9.410;2023-12-22T02:32:34;97250.56;;;3.48;74.28
71573;BME280;59408;51.032;9.410;2023-12-22T02:35:04;97233.41;;;3.53;74.89
71573;BME280;59408;51.032;9.410;2023-12-22T02:37:35;97227.78;;;3.58;74.66
71573;BME280;59408;51.032;9.410;2023-12-22T02:40:03;97227.31;;;3.56;74.60
71573;BME280;59408;51.032;9.410;2023-12-22T02:42:31;97224.53;;;3.53;74.55
71573;BME280;59408;51.032;9.410;2023-12-22T02:44:59;97230.47;;;3.58;73.87
71573;BME280;59408;51.032;9.410;2023-12-22T02:47:26;97231.25;;;3.59;73.52
71573;BME280;59408;51.032;9.410;2023-12-22T02:49:53;97220.47;;;3.59;74.14
71573;BME280;59408;51.032;9.410;2023-12-22T02:52:19;97236.19;;;3.57;74.65
71573;BME280;59408;51.032;9.410;2023-12-22T02:54:47;97238.78;;;3.65;72.93
71573;BME280;59408;51.032;9.410;2023-12-22T02:57:14;97230.16;;;3.72;72.66
71573;BME280;59408;51.032;9.410;2023-12-22T02:59:40;97241.25;;;3.70;73.00
71573;BME280;59408;51.032;9.410;2023-12-22T03:02:07;97219.78;;;3.74;73.07
71573;BME280;59408;51.032;9.410;2023-12-22T03:04:33;97231.59;;;3.69;74.01
71573;BME280;59408;51.032;9.410;2023-12-22T03:07:00;97225.09;;;3.70;74.44
71573;BME280;59408;51.032;9.410;2023-12-22T03:09:27;97207.88;;;3.87;72.81
71573;BME280;59408;51.032;9.410;2023-12-22T03:11:55;97206.09;;;3.79;73.68
71573;BME280;59408;51.032;9.410;2023-12-22T03:14:22;97199.31;;;3.85;72.81
71573;BME280;59408;51.032;9.410;2023-12-22T03:16:48;97216.09;;;3.78;74.70
71573;BME280;59408;51.032;9.410;2023-12-22T03:19:15;97227.53;;;3.75;74.25
71573;BME280;59408;51.032;9.410;2023-12-22T03:21:42;97234.41;;;3.73;74.70
71573;BME280;59408;51.032;9.410;2023-12-22T03:24:08;97230.16;;;3.72;75.40
71573;BME280;59408;51.032;9.410;2023-12-22T03:26:35;97229.69;;;3.70;75.88
71573;BME280;59408;51.032;9.410;2023-12-22T03:29:02;97234.50;;;3.76;75.39
71573;BME280;59408;51.032;9.410;2023-12-22T03:31:29;97225.41;;;3.69;76.68
71573;BME280;59408;51.032;9.410;2023-12-22T03:33:56;97240.00;;;3.68;76.44
71573;BME280;59408;51.032;9.410;2023-12-22T03:36:22;97246.88;;;3.65;75.99
71573;BME280;59408;51.032;9.410;2023-12-22T03:38:49;97258.00;;;3.64;76.49
71573;BME280;59408;51.032;9.410;2023-12-22T03:41:16;97261.91;;;3.66;76.25
71573;BME280;59408;51.032;9.410;2023-12-22T03:43:42;97276.06;;;3.87;72.43
71573;BME280;59408;51.032;9.410;2023-12-22T03:46:10;97272.59;;;3.87;72.19
71573;BME280;59408;51.032;9.410;2023-12-22T03:48:37;97268.44;;;3.89;72.14
71573;BME280;59408;51.032;9.410;2023-12-22T03:51:03;97266.28;;;3.83;72.97
71573;BME280;59408;51.032;9.410;2023-12-22T03:53:30;97257.53;;;3.86;72.73
71573;BME280;59408;51.032;9.410;2023-12-22T03:55:56;97271.47;;;3.88;73.40
71573;BME280;59408;51.032;9.410;2023-12-22T03:58:23;97280.47;;;3.80;73.96
71573;BME280;59408;51.032;9.410;2023-12-22T04:00:50;97279.78;;;3.83;73.91
71573;BME280;59408;51.032;9.410;2023-12-22T04:03:19;97274.72;;;3.94;73.45
71573;BME280;59408;51.032;9.410;2023-12-22T04:05:45;97283.50;;;3.91;74.70
71573;BME280;59408;51.032;9.410;2023-12-22T04:08:12;97288.91;;;3.91;74.73
71573;BME280;59408;51.032;9.410;2023-12-22T04:10:39;97281.34;;;3.84;75.38
71573;BME280;59408;51.032;9.410;2023-12-22T04:13:05;97284.75;;;3.81;74.97
71573;BME280;59408;51.032;9.410;2023-12-22T04:15:32;97271.78;;;3.74;75.77
71573;BME280;59408;51.032;9.410;2023-12-22T04:17:59;97279.09;;;3.74;75.82
71573;BME280;59408;51.032;9.410;2023-12-22T04:20:27;97282.28;;;3.64;77.77
71573;BME280;59408;51.032;9.410;2023-12-22T04:22:53;97277.31;;;3.66;76.97
71573;BME280;59408;51.032;9.410;2023-12-22T04:25:20;97265.19;;;3.60;77.41
71573;BME280;59408;51.032;9.410;2023-12-22T04:27:47;97268.56;;;3.69;76.58
71573;BME280;59408;51.032;9.410;2023-12-22T04:30:13;97269.66;;;3.68;76.98
71573;BME280;59408;51.032;9.410;2023-12-22T04:32:40;97271.72;;;3.71;76.85
71573;BME280;59408;51.032;9.410;2023-12-22T04:35:07;97270.47;;;3.68;77.41
71573;BME280;59408;51.032;9.410;2023-12-22T04:37:35;97299.69;;;3.78;77.69
71573;BME280;59408;51.032;9.410;2023-12-22T04:40:02;97312.25;;;3.74;79.59
71573;BME280;59408;51.032;9.410;2023-12-22T04:42:29;97295.75;;;3.64;81.48
71573;BME280;59408;51.032;9.410;2023-12-22T04:44:55;97318.53;;;3.54;82.50
71573;BME280;59408;51.032;9.410;2023-12-22T04:47:22;97305.94;;;3.46;83.16
71573;BME280;59408;51.032;9.410;2023-12-22T04:49:48;97304.81;;;3.47;82.69
71573;BME280;59408;51.032;9.410;2023-12-22T04:52:15;97303.59;;;3.44;83.08
71573;BME280;59408;51.032;9.410;2023-12-22T04:54:43;97311.66;;;3.44;82.03
71573;BME280;59408;51.032;9.410;2023-12-22T04:57:10;97288.19;;;3.45;81.29
71573;BME280;59408;51.032;9.410;2023-12-22T04:59:38;97292.66;;;3.41;82.47
71573;BME280;59408;51.032;9.410;2023-12-22T05:02:05;97297.16;;;3.37;82.94
71573;BME280;59408;51.032;9.410;2023-12-22T05:04:32;97282.56;;;3.38;83.05
71573;BME280;59408;51.032;9.410;2023-12-22T05:06:59;97279.44;;;3.36;84.41
71573;BME280;59408;51.032;9.410;2023-12-22T05:09:25;97290.75;;;3.41;84.08
71573;BME280;59408;51.032;9.410;2023-12-22T05:11:54;97299.97;;;3.40;84.91
71573;BME280;59408;51.032;9.410;2023-12-22T05:14:20;97309.50;;;3.38;84.52
71573;BME280;59408;51.032;9.410;2023-12-22T05:16:47;97285.16;;;3.34;85.03
71573;BME280;59408;51.032;9.410;2023-12-22T05:19:13;97315.34;;;3.28;87.80
71573;BME280;59408;51.032;9.410;2023-12-22T05:21:40;97334.03;;;3.12;91.63
71573;BME280;59408;51.032;9.410;2023-12-22T05:24:06;97330.84;;;2.98;94.86
71573;BME280;59408;51.032;9.410;2023-12-22T05:26:33;97301.16;;;2.86;95.67
71573;BME280;59408;51.032;9.410;2023-12-22T05:29:01;97306.16;;;2.75;96.93
71573;BME280;59408;51.032;9.410;2023-12-22T05:31:28;97302.25;;;2.72;97.26
71573;BME280;59408;51.032;9.410;2023-12-22T05:33:55;97295.16;;;2.68;97.31
71573;BME280;59408;51.032;9.410;2023-12-22T05:36:21;97287.84;;;2.68;97.19
71573;BME280;59408;51.032;9.410;2023-12-22T05:38:48;97305.13;;;2.67;97.56
71573;BME280;59408;51.032;9.410;2023-12-22T05:41:14;97314.78;;;2.68;97.68
71573;BME280;59408;51.032;9.410;2023-12-22T05:43:41;97311.28;;;2.68;97.17
71573;BME280;59408;51.032;9.410;2023-12-22T05:46:09;97315.03;;;2.75;96.17
71573;BME280;59408;51.032;9.410;2023-12-22T05:48:35;97313.66;;;2.90;93.34
71573;BME280;59408;51.032;9.410;2023-12-22T05:51:02;97310.72;;;2.95;92.77
71573;BME280;59408;51.032;9.410;2023-12-22T05:53:29;97303.78;;;2.94;92.28
71573;BME280;59408;51.032;9.410;2023-12-22T05:55:55;97302.47;;;3.00;91.49
71573;BME280;59408;51.032;9.410;2023-12-22T05:58:22;97301.91;;;3.07;90.39
71573;BME280;59408;51.032;9.410;2023-12-22T06:00:48;97324.25;;;3.07;90.46
71573;BME280;59408;51.032;9.410;2023-12-22T06:03:16;97299.47;;;3.14;88.79
71573;BME280;59408;51.032;9.410;2023-12-22T06:05:43;97323.75;;;3.26;86.64
71573;BME280;59408;51.032;9.410;2023-12-22T06:08:10;97340.38;;;3.40;83.42
71573;BME280;59408;51.032;9.410;2023-12-22T06:10:37;97324.03;;;3.45;84.18
71573;BME280;59408;51.032;9.410;2023-12-22T06:13:03;97342.31;;;3.40;85.41
71573;BME280;59408;51.032;9.410;2023-12-22T06:15:30;97346.44;;;3.37;85.68
71573;BME280;59408;51.032;9.410;2023-12-22T06:17:56;97336.03;;;3.36;85.65
71573;BME280;59408;51.032;9.410;2023-12-22T06:20:24;97338.03;;;3.39;84.70
71573;BME280;59408;51.032;9.410;2023-12-22T06:22:51;97339.38;;;3.33;85.85
71573;BME280;59408;51.032;9.410;2023-12-22T06:25:18;97355.88;;;3.31;86.25
71573;BME280;59408;51.032;9.410;2023-12-22T06:27:45;97336.91;;;3.28;86.28
71573;BME280;59408;51.032;9.410;2023-12-22T06:30:13;97343.97;;;3.32;85.40
71573;BME280;59408;51.032;9.410;2023-12-22T06:32:39;97356.00;;;3.35;84.21
71573;BME280;59408;51.032;9.410;2023-12-22T06:35:07;97353.50;;;3.30;86.26
71573;BME280;59408;51.032;9.410;2023-12-22T06:37:35;97359.56;;;3.27;86.06
71573;BME280;59408;51.032;9.410;2023-12-22T06:40:02;97362.97;;;3.36;83.92
71573;BME280;59408;51.032;9.410;2023-12-22T06:42:29;97372.41;;;3.42;83.36
71573;BME280;59408;51.032;9.410;2023-12-22T06:44:55;97374.63;;;3.40;85.12
71573;BME280;59408;51.032;9.410;2023-12-22T06:47:22;97385.03;;;3.29;86.35
71573;BME280;59408;51.032;9.410;2023-12-22T06:49:49;97384.25;;;3.29;86.33
71573;BME280;59408;51.032;9.410;2023-12-22T06:52:15;97390.00;;;3.27;86.67
71573;BME280;59408;51.032;9.410;2023-12-22T06:54:43;97385.41;;;3.28;86.11
71573;BME280;59408;51.032;9.410;2023-12-22T06:57:10;97397.53;;;3.34;85.21
71573;BME280;59408;51.032;9.410;2023-12-22T06:59:37;97394.06;;;3.33;85.50
71573;BME280;59408;51.032;9.410;2023-12-22T07:02:05;97387.78;;;3.41;84.47
71573;BME280;59408;51.032;9.410;2023-12-22T07:07:49;97419.91;;;3.46;84.67
71573;BME280;59408;51.032;9.410;2023-12-22T07:10:18;97414.97;;;3.48;83.40
71573;BME280;59408;51.032;9.410;2023-12-22T07:12:44;97421.06;;;3.58;82.39
71573;BME280;59408;51.032;9.410;2023-12-22T07:15:11;97429.47;;;3.56;82.31
71573;BME280;59408;51.032;9.410;2023-12-22T07:17:38;97440.03;;;3.49;83.23
71573;BME280;59408;51.032;9.410;2023-12-22T07:20:06;97437.88;;;3.42;83.77
71573;BME280;59408;51.032;9.410;2023-12-22T07:22:33;97439.38;;;3.52;80.92
71573;BME280;59408;51.032;9.410;2023-12-22T07:24:59;97446.53;;;3.48;81.19
71573;BME280;59408;51.032;9.410;2023-12-22T07:27:27;97438.88;;;3.71;77.40
71573;BME280;59408;51.032;9.410;2023-12-22T07:29:54;97435.16;;;3.75;77.24
71573;BME280;59408;51.032;9.410;2023-12-22T07:32:21;97427.44;;;3.86;76.28
71573;BME280;59408;51.032;9.410;2023-12-22T07:34:47;97459.59;;;3.91;75.83
71573;BME280;59408;51.032;9.410;2023-12-22T07:37:14;97472.03;;;3.83;77.46
71573;BME280;59408;51.032;9.410;2023-12-22T07:39:41;97462.81;;;3.84;76.56
71573;BME280;59408;51.032;9.410;2023-12-22T07:42:07;97475.41;;;3.80;76.91
71573;BME280;59408;51.032;9.410;2023-12-22T07:44:35;97485.19;;;3.85;76.61
71573;BME280;59408;51.032;9.410;2023-12-22T07:47:02;97477.66;;;3.78;77.49
71573;BME280;59408;51.032;9.410;2023-12-22T07:49:29;97482.50;;;3.85;76.74
71573;BME280;59408;51.032;9.410;2023-12-22T07:51:57;97484.72;;;3.83;77.62
71573;BME280;59408;51.032;9.410;2023-12-22T07:54:24;97483.69;;;3.75;78.53
71573;BME280;59408;51.032;9.410;2023-12-22T07:56:50;97482.91;;;3.75;78.74
71573;BME280;59408;51.032;9.410;2023-12-22T07:59:17;97499.00;;;3.83;78.91
71573;BME280;59408;51.032;9.410;2023-12-22T08:01:57;97497.00;;;3.93;78.36
71573;BME280;59408;51.032;9.410;2023-12-22T08:04:24;97490.16;;;3.95;78.79
71573;BME280;59408;51.032;9.410;2023-12-22T08:06:51;97486.56;;;3.91;79.27
71573;BME280;59408;51.032;9.410;2023-12-22T08:09:17;97480.81;;;3.93;80.13
71573;BME280;59408;51.032;9.410;2023-12-22T08:11:44;97488.47;;;3.91;80.36
71573;BME280;59408;51.032;9.410;2023-12-22T08:14:10;97491.63;;;3.93;80.72
71573;BME280;59408;51.032;9.410;2023-12-22T08:16:37;97485.56;;;3.96;80.76
71573;BME280;59408;51.032;9.410;2023-12-22T08:19:05;97514.03;;;4.05;79.32
71573;BME280;59408;51.032;9.410;2023-12-22T08:21:31;97486.41;;;4.08;79.57
71573;BME280;59408;51.032;9.410;2023-12-22T08:24:09;97476.63;;;4.16;78.54
71573;BME280;59408;51.032;9.410;2023-12-22T08:26:41;97492.34;;;4.14;78.95
71573;BME280;59408;51.032;9.410;2023-12-22T08:29:08;97499.47;;;4.18;78.32
71573;BME280;59408;51.032;9.410;2023-12-22T08:31:36;97497.75;;;4.14;79.15
71573;BME280;59408;51.032;9.410;2023-12-22T08:34:02;97501.38;;;4.18;78.29
71573;BME280;59408;51.032;9.410;2023-12-22T08:36:31;97499.47;;;4.18;77.85
71573;BME280;59408;51.032;9.410;2023-12-22T08:38:59;97510.59;;;4.17;78.62
71573;BME280;59408;51.032;9.410;2023-12-22T08:41:27;97509.09;;;4.19;77.69
71573;BME280;59408;51.032;9.410;2023-12-22T08:43:53;97505.66;;;4.19;77.93
71573;BME280;59408;51.032;9.410;2023-12-22T08:46:20;97511.03;;;4.19;78.54
71573;BME280;59408;51.032;9.410;2023-12-22T08:48:47;97499.88;;;4.20;78.45
71573;BME280;59408;51.032;9.410;2023-12-22T08:51:14;97497.56;;;4.19;78.92
71573;BME280;59408;51.032;9.410;2023-12-22T08:53:41;97489.00;;;4.17;79.58
71573;BME280;59408;51.032;9.410;2023-12-22T08:56:08;97511.81;;;4.19;79.55
71573;BME280;59408;51.032;9.410;2023-12-22T08:58:35;97508.78;;;4.21;79.50
71573;BME280;59408;51.032;9.410;2023-12-22T09:01:01;97509.09;;;4.19;80.68
71573;BME280;59408;51.032;9.410;2023-12-22T09:03:28;97544.50;;;4.06;85.59
71573;BME280;59408;51.032;9.410;2023-12-22T09:05:55;97546.66;;;3.79;93.74
71573;BME280;59408;51.032;9.410;2023-12-22T09:08:23;97565.91;;;3.48;98.68
71573;BME280;59408;51.032;9.410;2023-12-22T09:10:52;97577.34;;;3.25;100.00
71573;BME280;59408;51.032;9.410;2023-12-22T09:13:19;97557.91;;;3.10;100.00
71573;BME280;59408;51.032;9.410;2023-12-22T09:15:46;97546.13;;;2.94;100.00
71573;BME280;59408;51.032;9.410;2023-12-22T09:18:12;97559.00;;;2.89;100.00
71573;BME280;59408;51.032;9.410;2023-12-22T09:20:39;97552.09;;;2.79;100.00
71573;BME280;59408;51.032;9.410;2023-12-22T09:23:05;97540.06;;;2.76;100.00
71573;BME280;59408;51.032;9.410;2023-12-22T09:25:32;97544.38;;;2.69;100.00
71573;BME280;59408;51.032;9.410;2023-12-22T09:28:01;97536.81;;;2.62;100.00
71573;BME280;59408;51.032;9.410;2023-12-22T09:30:27;97539.97;;;2.56;100.00
71573;BME280;59408;51.032;9.410;2023-12-22T09:32:54;97533.69;;;2.52;100.00
71573;BME280;59408;51.032;9.410;2023-12-22T09:35:20;97531.63;;;2.49;100.00
71573;BME280;59408;51.032;9.410;2023-12-22T09:37:47;97529.59;;;2.46;100.00
71573;BME280;59408;51.032;9.410;2023-12-22T09:40:14;97540.38;;;2.46;100.00
71573;BME280;59408;51.032;9.410;2023-12-22T09:42:41;97530.06;;;2.39;100.00
71573;BME280;59408;51.032;9.410;2023-12-22T09:45:11;97533.09;;;2.37;100.00
71573;BME280;59408;51.032;9.410;2023-12-22T09:47:39;97539.72;;;2.40;100.00
71573;BME280;59408;51.032;9.410;2023-12-22T09:50:08;97538.94;;;2.39;100.00
71573;BME280;59408;51.032;9.410;2023-12-22T09:52:35;97556.66;;;2.41;100.00
71573;BME280;59408;51.032;9.410;2023-12-22T09:55:03;97559.06;;;2.33;100.00
71573;BME280;59408;51.032;9.410;2023-12-22T09:57:30;97573.78;;;2.36;100.00
71573;BME280;59408;51.032;9.410;2023-12-22T09:59:58;97565.41;;;2.29;100.00
71573;BME280;59408;51.032;9.410;2023-12-22T10:02:27;97576.03;;;2.25;100.00
71573;BME280;59408;51.032;9.410;2023-12-22T10:04:55;97584.22;;;2.29;100.00
71573;BME280;59408;51.032;9.410;2023-12-22T10:07:23;97566.38;;;2.24;100.00
71573;BME280;59408;51.032;9.410;2023-12-22T10:09:50;97541.53;;;2.19;100.00
71573;BME280;59408;51.032;9.410;2023-12-22T10:12:19;97532.53;;;2.15;100.00
71573;BME280;59408;51.032;9.410;2023-12-22T10:14:47;97535.69;;;2.17;100.00
71573;BME280;59408;51.032;9.410;2023-12-22T10:17:14;97538.84;;;2.19;100.00
71573;BME280;59408;51.032;9.410;2023-12-22T10:19:42;97529.97;;;2.27;100.00
71573;BME280;59408;51.032;9.410;2023-12-22T10:22:09;97551.47;;;2.35;100.00
71573;BME280;59408;51.032;9.410;2023-12-22T10:24:39;97551.88;;;2.46;100.00
71573;BME280;59408;51.032;9.410;2023-12-22T10:27:06;97516.56;;;2.56;100.00
71573;BME280;59408;51.032;9.410;2023-12-22T10:29:33;97522.88;;;2.60;100.00
71573;BME280;59408;51.032;9.410;2023-12-22T10:32:00;97507.19;;;2.62;100.00
71573;BME280;59408;51.032;9.410;2023-12-22T10:34:29;97516.66;;;2.68;100.00
71573;BME280;59408;51.032;9.410;2023-12-22T10:36:58;97506.16;;;2.75;100.00
71573;BME280;59408;51.032;9.410;2023-12-22T10:39:27;97493.75;;;2.83;100.00
71573;BME280;59408;51.032;9.410;2023-12-22T10:41:53;97507.19;;;2.92;100.00
71573;BME280;59408;51.032;9.410;2023-12-22T10:44:20;97499.72;;;2.97;100.00
71573;BME280;59408;51.032;9.410;2023-12-22T10:46:47;97513.75;;;3.03;100.00
71573;BME280;59408;51.032;9.410;2023-12-22T10:49:14;97501.88;;;3.04;100.00
71573;BME280;59408;51.032;9.410;2023-12-22T10:51:41;97494.13;;;3.02;100.00
71573;BME280;59408;51.032;9.410;2023-12-22T10:54:09;97497.81;;;2.98;100.00
71573;BME280;59408;51.032;9.410;2023-12-22T10:56:36;97485.31;;;2.93;100.00
71573;BME280;59408;51.032;9.410;2023-12-22T10:59:02;97468.41;;;2.84;100.00
71573;BME280;59408;51.032;9.410;2023-12-22T11:01:29;97452.78;;;2.78;100.00
71573;BME280;59408;51.032;9.410;2023-12-22T11:03:58;97453.13;;;2.76;100.00
71573;BME280;59408;51.032;9.410;2023-12-22T11:06:29;97456.78;;;2.71;100.00
71573;BME280;59408;51.032;9.410;2023-12-22T11:08:57;97447.59;;;2.72;100.00
71573;BME280;59408;51.032;9.410;2023-12-22T11:11:27;97455.22;;;2.70;100.00
71573;BME280;59408;51.032;9.410;2023-12-22T11:13:56;97451.72;;;2.70;100.00
71573;BME280;59408;51.032;9.410;2023-12-22T11:16:23;97446.19;;;2.66;100.00
71573;BME280;59408;51.032;9.410;2023-12-22T11:18:52;97453.16;;;2.67;100.00
71573;BME280;59408;51.032;9.410;2023-12-22T11:21:21;97459.66;;;2.66;100.00
71573;BME280;59408;51.032;9.410;2023-12-22T11:23:49;97465.03;;;2.66;100.00
71573;BME280;59408;51.032;9.410;2023-12-22T11:26:18;97451.25;;;2.68;100.00
71573;BME280;59408;51.032;9.410;2023-12-22T11:28:49;97435.13;;;2.68;100.00
71573;BME280;59408;51.032;9.410;2023-12-22T11:31:15;97441.94;;;2.65;100.00
71573;BME280;59408;51.032;9.410;2023-12-22T11:33:44;97441.34;;;2.60;100.00
71573;BME280;59408;51.032;9.410;2023-12-22T11:36:29;97444.81;;;2.60;100.00
71573;BME280;59408;51.032;9.410;2023-12-22T11:38:56;97424.41;;;2.59;100.00
71573;BME280;59408;51.032;9.410;2023-12-22T11:41:26;97439.75;;;2.59;100.00
71573;BME280;59408;51.032;9.410;2023-12-22T11:43:56;97435.16;;;2.59;100.00
71573;BME280;59408;51.032;9.410;2023-12-22T11:46:23;97430.44;;;2.56;100.00
71573;BME280;59408;51.032;9.410;2023-12-22T11:48:52;97427.75;;;2.56;100.00
71573;BME280;59408;51.032;9.410;2023-12-22T11:51:19;97427.41;;;2.58;100.00
71573;BME280;59408;51.032;9.410;2023-12-22T11:53:46;97422.34;;;2.56;100.00
71573;BME280;59408;51.032;9.410;2023-12-22T11:56:12;97432.78;;;2.58;100.00
71573;BME280;59408;51.032;9.410;2023-12-22T11:58:40;97433.59;;;2.58;100.00
71573;BME280;59408;51.032;9.410;2023-12-22T12:01:12;97424.41;;;2.59;100.00
71573;BME280;59408;51.032;9.410;2023-12-22T12:03:42;97427.88;;;2.60;100.00
71573;BME280;59408;51.032;9.410;2023-12-22T12:06:15;97440.03;;;2.66;100.00
71573;BME280;59408;51.032;9.410;2023-12-22T12:08:42;97445.09;;;2.67;100.00
71573;BME280;59408;51.032;9.410;2023-12-22T12:11:09;97441.09;;;2.73;100.00
71573;BME280;59408;51.032;9.410;2023-12-22T12:13:42;97429.03;;;2.80;100.00
71573;BME280;59408;51.032;9.410;2023-12-22T12:16:12;97421.22;;;2.87;100.00
71573;BME280;59408;51.032;9.410;2023-12-22T12:18:39;97419.44;;;2.91;100.00
71573;BME280;59408;51.032;9.410;2023-12-22T12:21:06;97403.56;;;2.98;100.00
71573;BME280;59408;51.032;9.410;2023-12-22T12:23:33;97412.09;;;3.00;100.00
71573;BME280;59408;51.032;9.410;2023-12-22T12:26:00;97412.53;;;3.02;100.00
71573;BME280;59408;51.032;9.410;2023-12-22T12:28:29;97415.03;;;3.07;100.00
71573;BME280;59408;51.032;9.410;2023-12-22T12:31:00;97425.81;;;3.07;100.00
71573;BME280;59408;51.032;9.410;2023-12-22T12:33:29;97414.25;;;3.06;100.00
71573;BME280;59408;51.032;9.410;2023-12-22T12:35:57;97410.91;;;3.09;100.00
71573;BME280;59408;51.032;9.410;2023-12-22T12:38:42;97409.78;;;3.10;100.00
71573;BME280;59408;51.032;9.410;2023-12-22T12:41:10;97419.91;;;3.13;100.00
71573;BME280;59408;51.032;9.410;2023-12-22T12:43:41;97408.16;;;3.18;100.00
71573;BME280;59408;51.032;9.410;2023-12-22T12:46:07;97390.72;;;3.16;100.00
71573;BME280;59408;51.032;9.410;2023-12-22T12:48:35;97380.75;;;3.16;100.00
71573;BME280;59408;51.032;9.410;2023-12-22T12:51:03;97374.09;;;3.13;100.00
71573;BME280;59408;51.032;9.410;2023-12-22T12:53:31;97379.94;;;3.16;100.00
71573;BME280;59408;51.032;9.410;2023-12-22T12:55:57;97377.25;;;3.16;100.00
71573;BME280;59408;51.032;9.410;2023-12-22T12:58:27;97376.34;;;3.11;100.00
71573;BME280;59408;51.032;9.410;2023-12-22T13:01:03;97377.44;;;3.10;100.00
71573;BME280;59408;51.032;9.410;2023-12-22T13:03:30;97382.72;;;3.07;100.00
71573;BME280;59408;51.032;9.410;2023-12-22T13:06:07;97382.41;;;3.08;100.00
71573;BME280;59408;51.032;9.410;2023-12-22T13:08:34;97378.44;;;3.06;100.00
71573;BME280;59408;51.032;9.410;2023-12-22T13:11:10;97381.78;;;3.03;100.00